Time;durP1;ratioP1;P1;durP2;ratioP2;P2;SDS_P1;SDS_P2;PMS_P1;PMS_P2;Temp;Humidity;BMP_temperature;BMP_pressure;BME280_temperature;BME280_humidity;BME280_pressure;Samples;Min_cycle;Max_cycle;Signal;HPM_P1;HPM_P2
2022/09/14 00:01:35;;;;;;;9.03;8.08;;;;;;;15.83;95.22;99693.13;1602652;88;21059;-80
2022/09/14 00:04:06;;;;;;;9.60;8.60;;;;;;;15.87;94.95;99692.91;1590174;88;21536;-78
2022/09/14 00:06:34;;;;;;;9.70;8.25;;;;;;;15.88;94.60;99699.43;1630086;87;21571;-79
2022/09/14 00:09:05;;;;;;;10.10;8.28;;;;;;;15.90;94.41;99701.95;1601216;89;21323;-79
2022/09/14 00:12:34;;;;;;;8.70;7.87;;;;;;;15.90;94.37;99687.41;1591446;89;21963;-78
2022/09/14 00:15:20;;;;;;;9.83;8.60;;;;;;;15.89;93.94;99690.53;1588887;87;21443;-79
2022/09/14 00:17:47;;;;;;;10.95;9.80;;;;;;;15.81;93.69;99688.91;1603309;87;21533;-78
2022/09/14 00:20:14;;;;;;;13.00;9.10;;;;;;;15.78;93.51;99691.77;1602229;87;21104;-81
2022/09/14 00:22:41;;;;;;;11.50;10.15;;;;;;;15.77;93.86;99690.93;1604202;87;21530;-79
2022/09/14 00:25:09;;;;;;;11.43;9.85;;;;;;;15.77;93.93;99690.93;1596744;87;21151;-79
2022/09/14 00:27:36;;;;;;;12.47;10.13;;;;;;;15.75;93.96;99688.02;1583457;89;21533;-78
2022/09/14 00:30:05;;;;;;;10.78;8.98;;;;;;;15.77;94.00;99684.33;1578981;89;21119;-78
2022/09/14 00:32:32;;;;;;;10.73;9.73;;;;;;;15.78;93.99;99681.20;1582430;89;21121;-79
2022/09/14 00:34:59;;;;;;;17.12;10.30;;;;;;;15.78;93.97;99686.48;1601184;88;21044;-79
2022/09/14 00:37:26;;;;;;;11.95;9.38;;;;;;;15.78;93.97;99686.48;1601956;88;21520;-78
2022/09/14 00:39:53;;;;;;;10.78;9.63;;;;;;;15.76;93.93;99681.30;1588542;87;21036;-81
2022/09/14 00:42:20;;;;;;;10.85;9.75;;;;;;;15.75;93.90;99675.66;1601268;88;21012;-79
2022/09/14 00:44:53;;;;;;;11.83;9.75;;;;;;;15.75;93.94;99684.06;1580855;88;21497;-81
2022/09/14 00:47:21;;;;;;;10.98;9.88;;;;;;;15.74;93.90;99680.58;1601562;87;21075;-78
2022/09/14 00:49:48;;;;;;;13.55;9.85;;;;;;;15.72;93.84;99683.80;1601550;89;21152;-79
2022/09/14 00:52:26;;;;;;;10.63;9.53;;;;;;;15.71;93.81;99680.80;1630992;87;20963;-79
2022/09/14 00:54:57;;;;;;;11.15;9.15;;;;;;;15.68;93.80;99682.75;1598566;87;21072;-80
2022/09/14 00:57:29;;;;;;;14.33;10.08;;;;;;;15.64;93.74;99680.81;1630842;87;21063;-79
2022/09/14 00:59:56;;;;;;;11.05;9.73;;;;;;;15.62;93.86;99673.45;1630944;87;21545;-79
2022/09/14 01:02:26;;;;;;;11.57;9.90;;;;;;;15.60;93.55;99681.95;1630868;87;22003;-79
2022/09/14 01:04:54;;;;;;;9.68;8.68;;;;;;;15.58;93.58;99679.92;1631178;87;26998;-81
2022/09/14 01:07:35;;;;;;;9.85;8.83;;;;;;;15.55;93.61;99680.14;1630884;87;21095;-79
2022/09/14 01:10:13;;;;;;;10.32;9.00;;;;;;;15.50;93.58;99683.08;1631175;87;21333;-78
2022/09/14 01:13:10;;;;;;;10.05;8.90;;;;;;;15.47;93.72;99681.98;1629799;87;21043;-79
2022/09/14 01:15:42;;;;;;;11.88;9.58;;;;;;;15.40;93.81;99686.81;1631205;87;21981;-79
2022/09/14 01:18:24;;;;;;;9.93;8.93;;;;;;;15.40;93.81;99686.81;1616538;88;21038;-79
2022/09/14 01:21:11;;;;;;;11.63;9.18;;;;;;;15.37;93.87;99685.70;1617110;88;21038;-79
2022/09/14 01:23:56;;;;;;;10.85;9.50;;;;;;;15.35;94.06;99690.27;1615734;88;21049;-79
2022/09/14 01:27:07;;;;;;;10.72;9.63;;;;;;;15.35;94.06;99690.27;1631042;87;22198;-78
2022/09/14 01:29:48;;;;;;;10.08;8.80;;;;;;;15.32;94.26;99679.89;1617044;88;21156;-79
2022/09/14 01:32:23;;;;;;;13.13;8.80;;;;;;;15.30;94.30;99675.69;1630739;87;21565;-78
2022/09/14 01:34:58;;;;;;;9.88;8.80;;;;;;;15.27;94.53;99676.75;1610859;87;21067;-79
2022/09/14 01:37:33;;;;;;;9.85;8.85;;;;;;;15.27;94.53;99676.75;1631069;88;21100;-79
2022/09/14 01:40:08;;;;;;;9.53;8.60;;;;;;;15.26;94.50;99674.19;1629729;87;21521;-78
2022/09/14 01:42:39;;;;;;;9.95;8.95;;;;;;;15.26;94.61;99670.23;1629142;87;21544;-80
2022/09/14 01:45:10;;;;;;;9.63;8.63;;;;;;;15.25;94.62;99673.36;1624190;87;20987;-79
2022/09/14 01:47:48;;;;;;;10.68;9.40;;;;;;;15.24;94.64;99673.44;1595518;87;21290;-78
2022/09/14 01:50:24;;;;;;;11.12;9.68;;;;;;;15.23;94.53;99671.28;1616395;88;21049;-79
2022/09/14 01:52:56;;;;;;;9.55;8.40;;;;;;;15.16;94.88;99660.79;1630181;87;21103;-79
2022/09/14 01:55:51;;;;;;;12.47;8.83;;;;;;;15.16;94.81;99665.59;1631193;87;21131;-79
2022/09/14 01:58:35;;;;;;;9.93;8.93;;;;;;;15.16;94.81;99665.59;1630498;87;21063;-80
2022/09/14 02:01:05;;;;;;;10.00;8.80;;;;;;;15.17;94.66;99670.39;1580430;88;21100;-79
2022/09/14 02:03:37;;;;;;;9.60;8.60;;;;;;;15.08;94.37;99665.73;1630880;87;21091;-78
2022/09/14 02:06:13;;;;;;;10.25;8.90;;;;;;;15.05;93.78;99668.11;1614209;88;21053;-79
2022/09/14 02:08:41;;;;;;;10.50;9.40;;;;;;;14.99;93.98;99667.17;1626301;87;21166;-79
2022/09/14 02:11:08;;;;;;;10.35;8.48;;;;;;;14.95;94.20;99667.86;1631078;87;21035;-80
2022/09/14 02:13:35;;;;;;;9.93;8.48;;;;;;;14.89;94.45;99651.13;1630805;87;21536;-78
2022/09/14 02:16:03;;;;;;;11.18;8.85;;;;;;;14.92;94.57;99660.16;1630941;87;21039;-78
2022/09/14 02:18:30;;;;;;;11.43;8.70;;;;;;;14.89;94.52;99651.13;1629848;87;21091;-78
2022/09/14 02:21:08;;;;;;;14.38;8.93;;;;;;;14.89;94.71;99648.97;1631013;87;21176;-80
2022/09/14 02:23:36;;;;;;;11.03;8.88;;;;;;;14.89;94.90;99645.85;1630473;87;21604;-78
2022/09/14 02:26:04;;;;;;;12.95;8.85;;;;;;;14.90;94.97;99643.58;1630229;87;21591;-78
2022/09/14 02:28:31;;;;;;;13.03;9.15;;;;;;;14.91;95.04;99641.33;1631013;87;21524;-78
2022/09/14 02:31:42;;;;;;;10.55;8.55;;;;;;;14.91;95.04;99641.33;1631281;87;21051;-78
2022/09/14 02:34:40;;;;;;;9.55;8.23;;;;;;;14.92;95.22;99637.73;1602809;89;21239;-78
2022/09/14 02:37:27;;;;;;;11.80;9.08;;;;;;;14.94;95.35;99635.00;1620089;88;21088;-78
2022/09/14 02:40:15;;;;;;;13.05;8.83;;;;;;;14.97;95.40;99635.27;1618244;88;21503;-79
2022/09/14 02:42:59;;;;;;;11.57;9.78;;;;;;;14.97;95.35;99630.83;1631168;87;21059;-79
2022/09/14 02:45:50;;;;;;;10.65;9.55;;;;;;;14.96;95.25;99631.77;1616720;88;21489;-80
2022/09/14 02:48:41;;;;;;;10.18;9.05;;;;;;;14.95;95.21;99634.88;1631291;87;21235;-80
2022/09/14 02:51:34;;;;;;;12.68;10.25;;;;;;;14.93;95.14;99635.45;1630309;88;21527;-79
2022/09/14 02:54:09;;;;;;;11.12;9.65;;;;;;;14.91;95.13;99633.89;1597122;88;21065;-79
2022/09/14 02:56:36;;;;;;;11.48;10.28;;;;;;;14.90;95.26;99641.42;1631806;87;21040;-78
2022/09/14 02:59:04;;;;;;;12.65;11.38;;;;;;;14.90;95.30;99633.50;1611053;87;21029;-79
2022/09/14 03:01:31;;;;;;;12.40;10.65;;;;;;;14.89;95.36;99635.78;1610863;89;21138;-78
2022/09/14 03:03:58;;;;;;;14.65;11.80;;;;;;;14.87;95.38;99638.50;1629443;87;21100;-78
2022/09/14 03:06:25;;;;;;;13.62;12.10;;;;;;;14.87;95.39;99633.70;1631199;87;21575;-78
2022/09/14 03:08:52;;;;;;;13.83;12.33;;;;;;;14.85;95.55;99637.75;1630907;87;21581;-78
2022/09/14 03:11:19;;;;;;;12.93;11.48;;;;;;;14.85;95.64;99632.95;1631242;87;21019;-79
2022/09/14 03:13:45;;;;;;;14.93;12.55;;;;;;;14.85;95.85;99625.88;1630977;87;21131;-79
2022/09/14 03:16:18;;;;;;;14.75;12.30;;;;;;;14.85;95.86;99627.20;1621825;87;21051;-79
2022/09/14 03:18:45;;;;;;;16.12;13.55;;;;;;;14.86;95.95;99628.91;1631093;87;21092;-79
2022/09/14 03:21:16;;;;;;;16.50;13.35;;;;;;;14.86;95.99;99631.55;1630743;87;21107;-79
2022/09/14 03:23:47;;;;;;;14.45;12.80;;;;;;;14.86;96.04;99620.16;1630591;87;21505;-78
2022/09/14 03:26:21;;;;;;;14.87;13.10;;;;;;;14.87;96.02;99623.16;1617473;88;21215;-80
2022/09/14 03:28:53;;;;;;;14.33;12.82;;;;;;;14.85;96.05;99621.92;1631121;87;21500;-79
2022/09/14 03:31:20;;;;;;;14.15;12.60;;;;;;;14.85;96.09;99619.77;1630147;87;21063;-79
2022/09/14 03:33:54;;;;;;;14.28;12.70;;;;;;;14.84;96.08;99623.36;1630861;87;21566;-78
2022/09/14 03:36:21;;;;;;;13.53;11.68;;;;;;;14.83;96.15;99618.57;1630983;87;21012;-79
2022/09/14 03:38:52;;;;;;;12.93;11.55;;;;;;;14.82;96.12;99614.70;1631079;87;21150;-78
2022/09/14 03:41:21;;;;;;;15.45;12.78;;;;;;;14.83;96.38;99617.73;1631100;87;20976;-79
2022/09/14 03:43:48;;;;;;;13.97;12.57;;;;;;;14.84;96.35;99612.33;1617371;88;21029;-78
2022/09/14 03:46:20;;;;;;;18.98;12.85;;;;;;;14.83;96.44;99605.37;1617200;88;21507;-79
2022/09/14 03:48:48;;;;;;;13.90;12.13;;;;;;;14.81;96.13;99605.95;1617214;88;21035;-79
2022/09/14 03:51:16;;;;;;;15.55;12.80;;;;;;;14.77;96.08;99614.16;1630899;87;21150;-79
2022/09/14 03:53:44;;;;;;;14.73;12.73;;;;;;;14.76;96.19;99612.48;1612920;87;20944;-79
2022/09/14 03:56:16;;;;;;;14.43;12.58;;;;;;;14.74;96.30;99616.52;1630877;87;21062;-79
2022/09/14 03:58:45;;;;;;;15.68;12.70;;;;;;;14.74;96.55;99612.56;1630719;87;21027;-80
2022/09/14 04:01:16;;;;;;;13.80;12.40;;;;;;;14.76;96.64;99614.64;1630942;87;21067;-79
2022/09/14 04:03:44;;;;;;;13.48;11.80;;;;;;;14.76;96.61;99614.64;1630618;87;21176;-79
2022/09/14 04:06:12;;;;;;;15.25;12.35;;;;;;;14.75;96.42;99616.92;1631028;87;21019;-79
2022/09/14 04:08:41;;;;;;;18.30;13.22;;;;;;;14.72;96.51;99615.33;1617369;88;21507;-79
2022/09/14 04:11:16;;;;;;;13.55;11.40;;;;;;;14.71;96.44;99614.09;1631105;87;21524;-78
2022/09/14 04:13:44;;;;;;;15.60;12.75;;;;;;;14.70;96.63;99610.61;1631013;87;21036;-79
2022/09/14 04:16:13;;;;;;;15.90;12.53;;;;;;;14.70;96.60;99616.38;1631028;88;21142;-79
2022/09/14 04:18:40;;;;;;;16.97;12.53;;;;;;;14.68;96.54;99616.46;1631161;87;21048;-79
2022/09/14 04:21:18;;;;;;;18.27;13.85;;;;;;;14.67;96.70;99617.42;1617191;88;21053;-79
2022/09/14 04:23:46;;;;;;;14.58;12.45;;;;;;;14.65;96.46;99628.53;1631317;87;21055;-79
2022/09/14 04:26:17;;;;;;;16.37;13.03;;;;;;;14.62;96.72;99628.74;1617261;88;21058;-79
2022/09/14 04:28:44;;;;;;;14.33;12.78;;;;;;;14.62;96.60;99622.15;1631236;87;21325;-79
2022/09/14 04:31:12;;;;;;;13.38;11.97;;;;;;;14.59;96.36;99628.11;1630746;87;21504;-79
2022/09/14 04:33:42;;;;;;;14.40;12.15;;;;;;;14.55;96.37;99629.23;1630587;87;21024;-79
2022/09/14 04:36:13;;;;;;;16.60;13.05;;;;;;;14.50;96.41;99622.46;1630268;87;21557;-79
2022/09/14 04:38:42;;;;;;;14.10;12.28;;;;;;;14.48;96.52;99623.02;1630868;87;21505;-82
2022/09/14 04:41:16;;;;;;;14.30;12.78;;;;;;;14.47;96.63;99626.62;1610518;87;21333;-81
2022/09/14 04:43:45;;;;;;;14.65;12.43;;;;;;;14.43;96.44;99630.39;1598648;87;21504;-77
2022/09/14 04:46:16;;;;;;;15.38;12.55;;;;;;;14.40;96.51;99624.00;1566961;89;21085;-77
2022/09/14 04:48:43;;;;;;;14.65;12.13;;;;;;;14.41;96.96;99625.71;1581400;89;21075;-78
2022/09/14 04:51:16;;;;;;;14.70;12.40;;;;;;;14.41;96.81;99626.16;1580586;89;21345;-78
2022/09/14 04:53:46;;;;;;;13.18;11.78;;;;;;;14.38;96.60;99629.87;1581021;89;21151;-77
2022/09/14 04:56:14;;;;;;;15.98;12.40;;;;;;;14.38;96.95;99629.87;1581199;89;28292;-78
2022/09/14 04:58:45;;;;;;;12.37;10.95;;;;;;;14.37;96.89;99624.67;1581169;89;21071;-78
2022/09/14 05:01:16;;;;;;;14.70;11.55;;;;;;;14.36;96.99;99630.43;1581336;89;21068;-78
2022/09/14 05:03:43;;;;;;;12.82;11.43;;;;;;;14.36;96.69;99638.81;1581902;89;21102;-77
2022/09/14 05:06:14;;;;;;;16.10;12.78;;;;;;;14.34;96.88;99640.70;1581059;89;21976;-77
2022/09/14 05:08:42;;;;;;;15.05;12.03;;;;;;;14.34;96.85;99635.42;1580787;89;21072;-78
2022/09/14 05:11:14;;;;;;;13.10;11.50;;;;;;;14.33;97.08;99633.72;1581020;89;21108;-77
2022/09/14 05:13:41;;;;;;;14.93;11.00;;;;;;;14.34;96.93;99636.74;1581084;89;21092;-78
2022/09/14 05:16:18;;;;;;;14.23;11.03;;;;;;;14.33;96.83;99637.67;1582545;89;21243;-78
2022/09/14 05:18:46;;;;;;;12.82;10.63;;;;;;;14.33;96.82;99642.94;1579598;89;21173;-78
2022/09/14 05:21:16;;;;;;;12.88;10.08;;;;;;;14.31;96.71;99643.06;1581035;89;21060;-78
2022/09/14 05:23:44;;;;;;;12.80;10.45;;;;;;;14.30;96.72;99642.70;1581019;89;21067;-78
2022/09/14 05:26:12;;;;;;;14.28;10.00;;;;;;;14.28;96.67;99643.26;1581697;89;21939;-78
2022/09/14 05:28:39;;;;;;;13.10;9.95;;;;;;;14.25;96.60;99641.66;1582568;89;21554;-78
2022/09/14 05:31:11;;;;;;;10.93;9.50;;;;;;;14.26;96.85;99637.23;1568449;89;21218;-77
2022/09/14 05:33:39;;;;;;;11.73;9.50;;;;;;;14.28;97.13;99637.51;1582270;89;21038;-78
2022/09/14 05:36:08;;;;;;;11.88;9.30;;;;;;;14.32;97.01;99632.03;1564764;90;21090;-77
2022/09/14 05:38:37;;;;;;;12.18;8.73;;;;;;;14.33;96.99;99634.59;1564605;89;21111;-77
2022/09/14 05:41:06;;;;;;;15.75;9.23;;;;;;;14.35;96.76;99640.58;1567633;89;21647;-78
2022/09/14 05:43:34;;;;;;;9.50;7.97;;;;;;;14.37;96.77;99642.66;1565222;90;21231;-78
2022/09/14 05:46:03;;;;;;;9.53;8.23;;;;;;;14.40;97.00;99633.70;1605386;87;21066;-78
2022/09/14 05:48:32;;;;;;;14.35;8.45;;;;;;;14.42;96.88;99630.02;1603845;87;23660;-78
2022/09/14 05:51:02;;;;;;;10.95;8.18;;;;;;;14.45;96.91;99625.87;1616805;87;21516;-77
2022/09/14 05:53:30;;;;;;;;;;;;;;;14.49;96.99;99623.41;1620444;87;21208;-78
2022/09/14 05:56:12;;;;;;;7.87;6.60;;;;;;;14.51;96.68;99620.66;1600884;88;21176;-78
2022/09/14 05:58:40;;;;;;;8.28;6.53;;;;;;;14.51;96.54;99620.66;1613735;87;21519;-77
2022/09/14 06:01:15;;;;;;;11.40;6.67;;;;;;;14.56;96.87;99621.72;1626130;87;22251;-77
2022/09/14 06:03:43;;;;;;;8.48;6.35;;;;;;;14.59;96.68;99624.16;1624705;87;21617;-77
2022/09/14 06:06:12;;;;;;;8.15;6.03;;;;;;;14.60;96.19;99621.39;1626204;87;21609;-77
2022/09/14 06:08:40;;;;;;;9.60;6.05;;;;;;;14.62;96.34;99626.11;1623872;87;21984;-77
2022/09/14 06:11:11;;;;;;;10.20;6.40;;;;;;;14.66;96.12;99624.97;1625342;87;21058;-77
2022/09/14 06:13:38;;;;;;;6.92;5.97;;;;;;;14.68;96.01;99616.94;1619837;87;21066;-83
2022/09/14 06:16:08;;;;;;;8.45;6.25;;;;;;;14.73;96.05;99614.84;1608445;87;22249;-74
2022/09/14 06:18:37;;;;;;;8.08;5.62;;;;;;;14.75;95.76;99622.19;1614843;87;21352;-77
2022/09/14 06:21:05;;;;;;;8.13;5.53;;;;;;;14.79;95.99;99629.42;1620381;87;21386;-78
2022/09/14 06:23:33;;;;;;;7.10;5.65;;;;;;;14.82;95.86;99631.84;1620603;87;21059;-77
2022/09/14 06:26:01;;;;;;;8.35;5.62;;;;;;;14.84;95.59;99626.00;1619969;87;21076;-74
2022/09/14 06:28:29;;;;;;;7.03;5.22;;;;;;;14.85;95.42;99627.68;1616475;87;21067;-75
2022/09/14 06:30:57;;;;;;;7.08;5.28;;;;;;;14.86;95.18;99624.95;1618728;87;21125;-77
2022/09/14 06:33:24;;;;;;;7.50;5.25;;;;;;;14.87;95.15;99623.16;1614816;87;21142;-77
2022/09/14 06:36:11;;;;;;;8.05;5.20;;;;;;;14.86;95.16;99616.20;1618445;87;21067;-82
2022/09/14 06:38:40;;;;;;;6.80;4.95;;;;;;;14.94;95.04;99622.64;1614735;87;21522;-78
2022/09/14 06:41:11;;;;;;;7.50;5.30;;;;;;;14.98;95.08;99620.64;1616757;87;21074;-78
2022/09/14 06:43:40;;;;;;;7.58;4.87;;;;;;;15.03;95.15;99611.09;1608146;88;21317;-77
2022/09/14 06:46:18;;;;;;;8.28;5.60;;;;;;;15.10;94.93;99614.98;1601867;88;21063;-77
2022/09/14 06:48:56;;;;;;;6.58;5.35;;;;;;;15.15;94.89;99615.53;1598295;89;21091;-75
2022/09/14 06:51:28;;;;;;;9.10;5.17;;;;;;;15.21;94.93;99616.90;1598717;89;21123;-77
2022/09/14 06:54:00;;;;;;;10.32;5.28;;;;;;;15.27;94.63;99616.47;1589846;89;21102;-75
2022/09/14 06:56:31;;;;;;;6.80;5.10;;;;;;;15.32;94.35;99610.41;1586778;89;21082;-74
2022/09/14 06:58:58;;;;;;;8.58;5.20;;;;;;;15.36;94.23;99615.86;1599211;88;22038;-74
2022/09/14 07:01:26;;;;;;;8.85;4.58;;;;;;;15.42;94.16;99629.11;1595643;88;21111;-74
2022/09/14 07:03:53;;;;;;;8.03;4.45;;;;;;;15.47;93.95;99617.75;1593021;88;21052;-75
2022/09/14 07:06:24;;;;;;;7.62;4.15;;;;;;;15.52;93.71;99620.45;1597712;88;21051;-75
2022/09/14 07:08:52;;;;;;;5.08;3.62;;;;;;;15.58;93.62;99612.56;1570787;90;21624;-76
2022/09/14 07:11:24;;;;;;;5.87;3.60;;;;;;;15.61;93.15;99614.50;1588902;89;21343;-76
2022/09/14 07:13:57;;;;;;;7.95;3.58;;;;;;;15.67;93.01;99615.03;1582971;89;21612;-75
2022/09/14 07:16:24;;;;;;;5.00;2.95;;;;;;;15.72;92.52;99623.52;1587599;89;21040;-76
2022/09/14 07:18:56;;;;;;;5.90;2.90;;;;;;;15.75;92.02;99618.00;1591357;87;21085;-76
2022/09/14 07:21:25;;;;;;;4.60;2.92;;;;;;;15.82;91.52;99615.28;1578572;88;21071;-75
2022/09/14 07:23:52;;;;;;;6.37;2.80;;;;;;;15.82;91.52;99615.28;1614707;88;22005;-75
2022/09/14 07:26:24;;;;;;;4.42;2.50;;;;;;;15.86;91.51;99619.89;1593317;88;21501;-76
2022/09/14 07:29:02;;;;;;;3.30;2.70;;;;;;;15.81;90.98;99613.60;1593831;89;21133;-76
2022/09/14 07:31:40;;;;;;;3.72;2.15;;;;;;;15.89;91.09;99619.19;1612836;89;21446;-76
2022/09/14 07:34:08;;;;;;;4.85;2.40;;;;;;;15.90;91.08;99615.58;1578877;89;21046;-76
2022/09/14 07:36:37;;;;;;;5.05;2.80;;;;;;;15.99;90.61;99622.00;1580190;88;21301;-75
2022/09/14 07:39:07;;;;;;;6.60;2.52;;;;;;;16.03;90.23;99619.52;1591840;88;21516;-76
2022/09/14 07:41:35;;;;;;;5.75;2.37;;;;;;;16.07;90.14;99615.68;1589964;88;28219;-77
2022/09/14 07:44:06;;;;;;;4.55;2.77;;;;;;;16.12;89.92;99620.16;1601742;89;21051;-76
2022/09/14 07:46:40;;;;;;;4.42;2.30;;;;;;;16.16;89.69;99629.58;1587977;88;21165;-76
2022/09/14 07:49:09;;;;;;;3.62;2.17;;;;;;;16.20;89.39;99629.70;1580718;88;21227;-76
2022/09/14 07:51:37;;;;;;;7.08;2.20;;;;;;;16.25;89.22;99635.99;1615765;87;21044;-76
2022/09/14 07:54:10;;;;;;;7.47;3.10;;;;;;;16.30;89.03;99625.92;1626399;87;21047;-77
2022/09/14 07:56:40;;;;;;;4.83;2.15;;;;;;;16.37;88.98;99629.80;1630952;87;21099;-75
2022/09/14 07:59:17;;;;;;;4.30;1.95;;;;;;;16.42;88.94;99621.05;1630196;87;21529;-76
2022/09/14 08:01:45;;;;;;;3.92;1.82;;;;;;;16.52;88.66;99626.52;1630682;87;21213;-76
2022/09/14 08:04:12;;;;;;;5.33;2.50;;;;;;;16.58;88.15;99628.70;1630942;87;21130;-76
2022/09/14 08:06:39;;;;;;;3.42;1.90;;;;;;;16.62;88.11;99624.86;1630956;87;21043;-77
2022/09/14 08:09:10;;;;;;;3.85;2.15;;;;;;;16.69;87.89;99617.33;1630705;88;21314;-76
2022/09/14 08:11:38;;;;;;;3.55;2.05;;;;;;;16.72;87.61;99618.41;1630032;87;21602;-76
2022/09/14 08:14:11;;;;;;;3.33;1.60;;;;;;;16.79;87.16;99618.81;1630957;87;21168;-78
2022/09/14 08:16:39;;;;;;;4.20;1.85;;;;;;;16.85;87.25;99620.99;1630713;87;21031;-76
2022/09/14 08:19:16;;;;;;;5.33;1.87;;;;;;;16.90;86.99;99621.49;1630965;87;21035;-76
2022/09/14 08:21:43;;;;;;;3.45;1.90;;;;;;;16.93;86.79;99617.29;1631063;87;21024;-76
2022/09/14 08:24:17;;;;;;;4.12;1.50;;;;;;;16.99;86.59;99614.66;1630110;87;21083;-76
2022/09/14 08:26:45;;;;;;;4.70;1.82;;;;;;;17.03;86.28;99612.98;1631038;87;21404;-77
2022/09/14 08:29:15;;;;;;;3.67;1.67;;;;;;;17.07;85.98;99616.23;1630775;87;20975;-76
2022/09/14 08:31:44;;;;;;;3.92;1.65;;;;;;;17.10;85.66;99610.73;1631042;87;21564;-77
2022/09/14 08:34:12;;;;;;;4.67;1.80;;;;;;;17.11;85.44;99615.89;1631111;87;21080;-76
2022/09/14 08:36:41;;;;;;;5.67;1.45;;;;;;;17.13;85.08;99611.82;1630985;87;21043;-76
2022/09/14 08:39:11;;;;;;;4.40;1.57;;;;;;;17.13;85.03;99609.17;1631168;87;21294;-76
2022/09/14 08:41:55;;;;;;;6.40;1.67;;;;;;;17.14;84.69;99610.36;1630348;87;21505;-76
2022/09/14 08:44:39;;;;;;;2.95;1.22;;;;;;;17.20;84.85;99606.39;1631048;87;21520;-77
2022/09/14 08:47:28;;;;;;;5.08;1.72;;;;;;;17.29;84.49;99611.45;1627562;87;21024;-77
2022/09/14 08:50:17;;;;;;;4.53;1.40;;;;;;;17.38;84.38;99612.92;1627152;88;21044;-76
2022/09/14 08:52:52;;;;;;;2.98;1.55;;;;;;;17.50;84.42;99607.14;1626810;88;22139;-76
2022/09/14 08:55:48;;;;;;;3.98;1.42;;;;;;;17.63;84.09;99602.22;1621209;88;21018;-78
2022/09/14 08:58:42;;;;;;;5.50;1.50;;;;;;;17.75;84.28;99595.94;1617870;88;21506;-76
2022/09/14 09:01:41;;;;;;;3.45;1.35;;;;;;;17.89;83.98;99598.84;1617912;88;21029;-76
2022/09/14 09:04:24;;;;;;;3.50;1.47;;;;;;;18.01;83.17;99599.16;1617216;88;21300;-76
2022/09/14 09:07:28;;;;;;;2.90;1.30;;;;;;;18.07;82.86;99597.37;1625188;88;21150;-76
2022/09/14 09:09:57;;;;;;;3.95;1.20;;;;;;;18.18;82.60;99603.97;1617765;88;21490;-76
2022/09/14 09:12:38;;;;;;;4.85;1.35;;;;;;;18.26;81.93;99600.66;1617972;88;21538;-77
2022/09/14 09:15:32;;;;;;;2.35;1.27;;;;;;;18.37;82.07;99597.14;1613401;88;21217;-76
2022/09/14 09:18:25;;;;;;;3.42;1.47;;;;;;;18.49;81.75;99602.28;1591813;88;21058;-76
2022/09/14 09:21:06;;;;;;;3.98;1.17;;;;;;;18.60;81.57;99601.89;1517135;94;21313;-77
2022/09/14 09:23:34;;;;;;;3.05;1.10;;;;;;;18.75;80.81;99597.13;1517542;93;21093;-76
2022/09/14 09:26:17;;;;;;;2.92;0.93;;;;;;;18.85;80.50;99602.88;1517207;94;21084;-76
2022/09/14 09:28:51;;;;;;;3.20;0.95;;;;;;;18.98;80.44;99596.02;1517394;93;21656;-77
2022/09/14 09:31:22;;;;;;;3.85;1.10;;;;;;;19.14;80.19;99584.45;1517289;94;21088;-76
2022/09/14 09:34:01;;;;;;;4.87;1.10;;;;;;;19.30;79.90;99589.79;1515099;94;21526;-76
2022/09/14 09:36:38;;;;;;;4.65;1.42;;;;;;;19.50;79.87;99590.71;1517154;93;20981;-77
2022/09/14 09:39:06;;;;;;;4.55;1.10;;;;;;;19.61;78.99;99590.61;1517125;94;21072;-76
2022/09/14 09:42:09;;;;;;;5.10;1.12;;;;;;;19.71;78.38;99584.88;1517259;94;20997;-77
2022/09/14 09:45:02;;;;;;;3.40;1.20;;;;;;;19.76;78.39;99581.80;1516891;94;21045;-76
2022/09/14 09:47:36;;;;;;;5.85;1.40;;;;;;;19.84;77.78;99584.63;1532185;93;21256;-76
2022/09/14 09:50:17;;;;;;;4.10;1.17;;;;;;;19.90;77.60;99578.78;1548035;92;21562;-76
2022/09/14 09:52:54;;;;;;;4.37;1.35;;;;;;;19.95;77.21;99581.87;1547110;92;21101;-76
2022/09/14 09:55:26;;;;;;;5.00;1.60;;;;;;;19.95;77.03;99579.68;1547252;92;20984;-76
2022/09/14 09:57:53;;;;;;;4.42;1.35;;;;;;;19.97;76.85;99577.73;1608324;88;21023;-76
2022/09/14 10:00:28;;;;;;;5.40;1.30;;;;;;;19.97;76.51;99579.90;1640925;87;21297;-76
2022/09/14 10:02:56;;;;;;;7.03;1.10;;;;;;;19.97;76.22;99575.08;1640595;87;21011;-76
2022/09/14 10:05:30;;;;;;;5.08;1.37;;;;;;;19.93;76.23;99573.19;1640915;86;21054;-76
2022/09/14 10:08:03;;;;;;;4.67;1.70;;;;;;;19.95;76.22;99572.56;1640675;87;21512;-76
2022/09/14 10:10:44;;;;;;;4.37;1.20;;;;;;;19.94;75.81;99577.52;1640932;87;21039;-76
2022/09/14 10:13:35;;;;;;;3.40;1.30;;;;;;;19.91;75.67;99573.80;1626683;88;21161;-76
2022/09/14 10:16:15;;;;;;;3.92;1.32;;;;;;;19.88;75.37;99570.09;1640954;86;21042;-78
2022/09/14 10:18:47;;;;;;;4.92;1.20;;;;;;;19.85;75.34;99570.36;1640653;87;21035;-77
2022/09/14 10:21:18;;;;;;;4.08;1.27;;;;;;;19.78;74.98;99566.55;1640981;87;21102;-77
2022/09/14 10:23:45;;;;;;;5.60;1.30;;;;;;;19.71;74.75;99564.94;1640902;87;21367;-77
2022/09/14 10:26:17;;;;;;;3.87;1.27;;;;;;;19.69;74.83;99564.23;1640665;87;21109;-77
2022/09/14 10:28:48;;;;;;;5.30;1.47;;;;;;;19.68;74.89;99567.04;1626402;88;21602;-77
2022/09/14 10:31:21;;;;;;;4.17;1.45;;;;;;;19.66;74.99;99565.83;1640885;86;21304;-76
2022/09/14 10:33:56;;;;;;;4.97;1.60;;;;;;;19.65;74.72;99568.12;1640683;87;21023;-77
2022/09/14 10:36:38;;;;;;;2.90;1.35;;;;;;;19.67;74.91;99564.01;1596413;88;21081;-76
2022/09/14 10:39:25;;;;;;;3.87;1.30;;;;;;;19.76;74.89;99560.06;1639886;87;21331;-76
2022/09/14 10:42:13;;;;;;;6.22;1.95;;;;;;;19.83;74.93;99561.18;1633761;87;21051;-77
2022/09/14 10:45:18;;;;;;;5.30;1.47;;;;;;;19.88;74.23;99555.47;1628979;88;20965;-76
2022/09/14 10:48:13;;;;;;;3.72;1.35;;;;;;;19.99;74.27;99555.84;1570374;90;21106;-76
2022/09/14 10:50:55;;;;;;;5.20;1.42;;;;;;;20.05;73.87;99556.61;1536787;93;21082;-77
2022/09/14 10:53:27;;;;;;;4.62;1.27;;;;;;;20.10;73.58;99551.72;1529221;93;21985;-77
2022/09/14 10:56:20;;;;;;;4.58;1.10;;;;;;;20.16;73.42;99549.83;1562995;91;21067;-76
2022/09/14 10:59:05;;;;;;;2.92;1.17;;;;;;;20.24;73.18;99546.48;1539012;91;21064;-76
2022/09/14 11:01:50;;;;;;;4.83;1.60;;;;;;;20.42;73.41;99552.77;1563842;91;21075;-77
2022/09/14 11:04:43;;;;;;;5.35;1.17;;;;;;;20.64;72.83;99548.16;1563817;91;21102;-77
2022/09/14 11:07:21;;;;;;;4.05;1.45;;;;;;;20.81;72.69;99539.47;1564142;91;21068;-77
2022/09/14 11:10:26;;;;;;;4.33;1.35;;;;;;;21.05;72.14;99538.13;1563322;91;21501;-76
2022/09/14 11:13:35;;;;;;;5.85;1.05;;;;;;;21.19;71.85;99531.49;1537087;92;20970;-77
2022/09/14 11:16:37;;;;;;;2.65;1.02;;;;;;;21.40;71.48;99531.31;1509788;93;21097;-76
2022/09/14 11:19:25;;;;;;;4.30;1.20;;;;;;;21.39;70.57;99531.78;1557869;91;21087;-77
2022/09/14 11:22:06;;;;;;;5.03;1.47;;;;;;;21.35;70.33;99525.05;1576035;88;21338;-77
2022/09/14 11:24:39;;;;;;;2.70;1.27;;;;;;;21.32;70.29;99523.51;1594297;89;20995;-76
2022/09/14 11:27:20;;;;;;;6.72;1.30;;;;;;;21.32;70.02;99513.34;1621365;87;21092;-77
2022/09/14 11:30:17;;;;;;;6.12;1.30;;;;;;;21.28;70.02;99516.78;1621285;88;21077;-76
2022/09/14 11:32:52;;;;;;;5.72;1.47;;;;;;;21.27;70.04;99515.61;1665765;85;21040;-76
2022/09/14 11:35:26;;;;;;;6.55;1.25;;;;;;;21.22;69.94;99514.70;1666693;85;21120;-76
2022/09/14 11:37:59;;;;;;;4.58;1.30;;;;;;;21.21;69.79;99510.88;1666692;85;21004;-78
2022/09/14 11:40:38;;;;;;;5.60;1.52;;;;;;;21.17;69.30;99510.30;1666709;86;21060;-76
2022/09/14 11:43:16;;;;;;;6.00;1.65;;;;;;;21.14;69.53;99510.60;1666010;85;21299;-77
2022/09/14 11:45:56;;;;;;;5.30;1.45;;;;;;;21.14;69.45;99514.13;1621298;88;21530;-76
2022/09/14 11:48:32;;;;;;;6.45;1.50;;;;;;;21.13;69.17;99511.10;1587988;88;21106;-77
2022/09/14 11:51:10;;;;;;;5.00;1.52;;;;;;;21.13;69.18;99509.77;1616803;88;21010;-76
2022/09/14 11:53:41;;;;;;;2.90;1.40;;;;;;;21.15;69.46;99509.64;1628346;87;21047;-80
2022/09/14 11:56:27;;;;;;;5.53;1.77;;;;;;;21.20;69.54;99507.84;1617846;88;20957;-75
2022/09/14 11:59:02;;;;;;;5.05;1.80;;;;;;;21.22;69.31;99504.55;1618240;87;21091;-77
2022/09/14 12:01:39;;;;;;;4.37;1.80;;;;;;;21.18;69.15;99504.51;1607429;88;21185;-79
2022/09/14 12:04:14;;;;;;;4.58;1.30;;;;;;;21.12;69.20;99508.10;1592426;88;21060;-77